Time;durP1;ratioP1;P1;durP2;ratioP2;P2;SDS_P1;SDS_P2;PMS_P1;PMS_P2;Temp;Humidity;BMP_temperature;BMP_pressure;BME280_temperature;BME280_humidity;BME280_pressure;Samples;Min_cycle;Max_cycle;Signal;HPM_P1;HPM_P2
2022/12/03 00:00:52;;;;;;;3.45;2.40;;;0.70;99.90;;;;;;20244074;23;20045;-61
2022/12/03 00:10:54;;;;;;;3.25;2.20;;;0.70;99.90;;;;;;20172433;23;20050;-60
2022/12/03 00:20:56;;;;;;;2.80;1.80;;;0.80;99.90;;;;;;20259335;23;20420;-57
2022/12/03 00:31:00;;;;;;;5.07;2.58;;;1.00;99.90;;;;;;20228882;23;20572;-60
2022/12/03 00:41:02;;;;;;;3.38;2.40;;;1.20;99.90;;;;;;20247612;23;20058;-56
2022/12/03 00:51:05;;;;;;;3.10;1.90;;;1.30;99.90;;;;;;20241096;23;20042;-60
2022/12/03 01:01:07;;;;;;;3.75;2.22;;;1.30;99.90;;;;;;20188133;23;20066;-56
2022/12/03 01:11:36;;;;;;;3.10;2.22;;;1.40;99.90;;;;;;20270955;23;20118;-60
2022/12/03 01:21:32;;;;;;;2.95;1.95;;;1.30;99.90;;;;;;20240528;23;20082;-53
2022/12/03 01:41:57;;;;;;;4.00;2.23;;;1.50;99.90;;;;;;20253580;23;20127;-53
2022/12/03 01:52:00;;;;;;;3.65;2.38;;;1.40;99.90;;;;;;20227286;23;20054;-59
2022/12/03 02:02:12;;;;;;;3.38;2.15;;;1.40;99.90;;;;;;20226845;23;20118;-57
2022/12/03 02:12:30;;;;;;;3.30;2.15;;;1.50;99.90;;;;;;20177143;23;20415;-70
2022/12/03 02:22:57;;;;;;;2.60;2.05;;;1.50;99.90;;;;;;20220714;23;20053;-60
2022/12/03 02:33:00;;;;;;;3.05;1.80;;;1.70;99.90;;;;;;20076711;23;20142;-53
2022/12/03 02:43:04;;;;;;;2.65;1.83;;;1.70;99.90;;;;;;20271667;23;20273;-57
2022/12/03 02:53:17;;;;;;;2.90;2.05;;;1.80;99.90;;;;;;20192034;23;20109;-54
2022/12/03 03:03:23;;;;;;;2.47;1.75;;;1.80;99.90;;;;;;20232383;23;20106;-56
2022/12/03 03:13:26;;;;;;;2.97;1.88;;;1.80;99.90;;;;;;20240599;23;20134;-62
2022/12/03 03:23:35;;;;;;;2.92;1.52;;;1.70;99.90;;;;;;20152690;23;20066;31
2022/12/03 03:33:40;;;;;;;3.72;1.73;;;1.70;99.90;;;;;;20185037;23;20111;-58
2022/12/03 03:43:44;;;;;;;2.70;1.90;;;1.90;99.90;;;;;;20231766;23;20090;-60
2022/12/03 03:53:48;;;;;;;3.78;1.98;;;1.90;99.90;;;;;;20232754;23;20083;-57
2022/12/03 04:03:52;;;;;;;3.70;1.88;;;1.80;99.90;;;;;;20250861;23;20196;-61
2022/12/03 04:13:54;;;;;;;2.65;1.88;;;1.90;99.90;;;;;;20221370;23;20062;-52
2022/12/03 04:24:12;;;;;;;2.85;1.80;;;2.00;99.90;;;;;;20168282;23;20120;-55
2022/12/03 04:44:41;;;;;;;2.92;2.05;;;2.20;99.90;;;;;;20651441;23;20090;-55
2022/12/03 04:54:45;;;;;;;3.55;2.40;;;2.00;99.90;;;;;;20221941;23;20057;-61
2022/12/03 05:04:47;;;;;;;3.40;2.10;;;1.90;99.90;;;;;;20252634;23;20061;-56
2022/12/03 05:14:49;;;;;;;3.35;1.95;;;1.70;99.90;;;;;;20257889;23;20050;-53
2022/12/03 05:24:52;;;;;;;4.32;2.30;;;1.70;99.90;;;;;;20237105;23;20058;-55
2022/12/03 05:34:54;;;;;;;4.00;2.45;;;1.50;99.90;;;;;;20205401;23;20095;-51
2022/12/03 05:44:57;;;;;;;4.57;3.00;;;1.40;99.90;;;;;;20232711;23;20573;-54
2022/12/03 05:54:59;;;;;;;3.67;2.55;;;1.20;99.90;;;;;;20241904;23;20061;-55
2022/12/03 06:05:04;;;;;;;4.25;2.72;;;1.10;99.90;;;;;;20204577;23;20517;-61
2022/12/03 06:15:08;;;;;;;4.32;2.88;;;1.10;99.90;;;;;;20250289;23;20046;-56
2022/12/03 06:35:31;;;;;;;2.97;2.13;;;1.20;99.90;;;;;;20199403;23;20096;-56
2022/12/03 06:45:33;;;;;;;3.65;2.70;;;1.20;99.90;;;;;;20244413;23;20066;-60
2022/12/03 06:55:36;;;;;;;4.60;2.92;;;1.20;99.90;;;;;;20267028;23;20609;-54
2022/12/03 07:05:39;;;;;;;5.18;3.08;;;1.10;99.90;;;;;;20251879;23;20058;-59
2022/12/03 07:15:41;;;;;;;4.43;2.80;;;1.10;99.90;;;;;;20228909;23;20062;-70
2022/12/03 07:25:44;;;;;;;3.50;2.45;;;1.10;99.90;;;;;;19645309;23;15106611;-58
2022/12/03 07:35:47;;;;;;;3.72;2.58;;;1.20;99.90;;;;;;20246153;23;20118;-59
2022/12/03 07:45:49;;;;;;;4.20;2.60;;;1.20;99.90;;;;;;20225429;23;20118;-59
2022/12/03 07:55:52;;;;;;;3.63;2.40;;;1.30;99.90;;;;;;20259950;23;20466;-51
2022/12/03 08:05:54;;;;;;;3.42;2.20;;;1.50;99.90;;;;;;20256469;23;20077;-59
2022/12/03 08:16:00;;;;;;;3.20;2.05;;;1.50;99.90;;;;;;20177833;23;20053;-59
2022/12/03 08:26:23;;;;;;;3.28;2.20;;;1.40;99.90;;;;;;20244991;23;20061;-49
2022/12/03 08:36:31;;;;;;;4.40;2.58;;;1.40;99.90;;;;;;20238357;23;20053;-61
2022/12/03 08:46:34;;;;;;;4.72;2.50;;;1.30;99.90;;;;;;20228587;23;20420;-60
2022/12/03 08:56:36;;;;;;;3.88;2.03;;;1.30;99.90;;;;;;20251813;23;20369;-62
2022/12/03 09:06:39;;;;;;;2.00;1.40;;;1.40;99.90;;;;;;20668718;23;20049;-59
2022/12/03 09:16:56;;;;;;;2.92;1.45;;;1.60;99.90;;;;;;20207735;23;20141;-57
2022/12/03 09:26:58;;;;;;;2.45;1.38;;;1.80;99.90;;;;;;20177132;23;20524;-59
2022/12/03 09:37:01;;;;;;;1.70;1.20;;;1.90;99.90;;;;;;20276372;23;20062;-60
2022/12/03 09:47:05;;;;;;;2.17;1.30;;;2.00;99.90;;;;;;20254207;23;20090;-60
2022/12/03 09:57:12;;;;;;;2.10;1.50;;;2.00;99.90;;;;;;20249375;23;20350;-60
2022/12/03 10:07:14;;;;;;;2.72;1.77;;;2.10;99.90;;;;;;20262208;23;20048;-58
2022/12/03 10:17:17;;;;;;;2.38;1.70;;;2.00;99.90;;;;;;20178538;23;20065;-59
2022/12/03 10:27:22;;;;;;;2.55;1.83;;;1.70;99.90;;;;;;20252657;24;20065;-50
2022/12/03 10:37:25;;;;;;;4.68;1.90;;;1.40;99.90;;;;;;20160250;23;20354;-54
2022/12/03 10:47:28;;;;;;;4.45;2.72;;;1.20;99.90;;;;;;20189719;23;20217;-57
2022/12/03 10:57:30;;;;;;;3.88;2.30;;;1.10;99.90;;;;;;20256457;23;20181;-56
2022/12/03 11:07:47;;;;;;;5.75;2.85;;;1.00;99.90;;;;;;20192316;23;20095;-57
2022/12/03 11:17:52;;;;;;;5.55;3.70;;;1.00;99.90;;;;;;20174242;23;20058;-62
2022/12/03 11:28:42;;;;;;;6.05;3.33;;;1.00;99.90;;;;;;20243689;23;20066;-60
2022/12/03 11:38:46;;;;;;;;;;;1.00;99.90;;;;;;20153953;23;20061;-61
2022/12/03 11:48:52;;;;;;;2.42;1.30;;;1.10;99.90;;;;;;20225231;23;20001;-59
2022/12/03 11:59:00;;;;;;;1.50;0.90;;;1.30;99.90;;;;;;20220698;23;20053;-59
2022/12/03 12:09:02;;;;;;;1.17;0.60;;;1.30;99.90;;;;;;20243559;23;20111;-60
2022/12/03 12:19:41;;;;;;;1.08;0.75;;;1.30;99.90;;;;;;20248355;23;20070;-62
2022/12/03 12:29:50;;;;;;;1.85;1.00;;;1.30;99.90;;;;;;20235245;23;20476;-59
2022/12/03 12:39:55;;;;;;;1.60;1.10;;;1.30;99.90;;;;;;20217625;23;20049;-52
2022/12/03 12:50:14;;;;;;;1.25;0.80;;;1.30;99.90;;;;;;20184062;23;20073;-61
2022/12/03 13:00:22;;;;;;;1.23;0.73;;;1.40;99.90;;;;;;20154367;23;20058;-61
2022/12/03 13:10:37;;;;;;;2.20;1.30;;;1.50;99.90;;;;;;20236814;23;20062;-48
2022/12/03 13:20:41;;;;;;;1.88;0.68;;;1.60;99.90;;;;;;20234661;23;20058;-62
2022/12/03 13:30:44;;;;;;;1.88;0.90;;;1.50;99.90;;;;;;20222773;23;20110;-61
2022/12/03 13:40:55;;;;;;;1.15;0.70;;;1.50;99.90;;;;;;20244014;23;20050;-59
2022/12/03 13:51:10;;;;;;;1.58;0.95;;;1.60;99.90;;;;;;20218845;23;20069;-52
2022/12/03 14:01:18;;;;;;;1.63;0.70;;;1.70;99.90;;;;;;20193231;23;20061;31
2022/12/03 14:21:47;;;;;;;1.10;0.50;;;1.70;99.90;;;;;;20206396;23;20113;-51
2022/12/03 14:31:49;;;;;;;1.70;0.60;;;1.80;99.90;;;;;;20195733;23;20053;-59
2022/12/03 15:02:41;;;;;;;1.17;0.65;;;1.90;99.90;;;;;;20332406;23;20061;-61
2022/12/03 15:12:43;;;;;;;1.63;0.98;;;1.90;99.90;;;;;;20963147;23;20118;-62
2022/12/03 15:22:52;;;;;;;2.47;1.30;;;1.90;99.90;;;;;;20199113;23;20050;31
2022/12/03 15:32:55;;;;;;;1.05;0.30;;;1.80;99.90;;;;;;20186594;23;20057;-59
2022/12/03 15:42:58;;;;;;;1.05;0.50;;;1.80;99.90;;;;;;20235783;23;20528;-61
2022/12/03 15:53:00;;;;;;;0.88;0.40;;;1.90;99.90;;;;;;20240223;23;20058;-60
2022/12/03 16:03:03;;;;;;;0.70;0.50;;;2.10;99.90;;;;;;19672945;23;15779449;-60
2022/12/03 16:13:35;;;;;;;1.40;0.40;;;2.10;99.90;;;;;;20252171;23;20053;31
2022/12/03 16:23:37;;;;;;;0.47;0.30;;;2.00;99.90;;;;;;20278818;23;20042;-61
2022/12/03 16:34:14;;;;;;;0.95;0.30;;;2.00;99.90;;;;;;20214921;23;20054;-61
2022/12/03 16:54:50;;;;;;;1.65;0.20;;;2.00;99.90;;;;;;20207996;23;20066;-57
2022/12/03 17:04:56;;;;;;;0.40;0.10;;;1.90;99.90;;;;;;20181423;23;20054;-58
2022/12/03 17:14:59;;;;;;;3.42;0.30;;;2.00;99.90;;;;;;20262650;23;20062;-50
2022/12/03 17:25:03;;;;;;;1.85;0.10;;;2.00;99.90;;;;;;20252019;23;20053;-59
2022/12/03 17:35:05;;;;;;;0.32;0.10;;;2.00;99.90;;;;;;20238788;23;20053;-62
2022/12/03 17:45:08;;;;;;;0.03;0.00;;;2.00;99.90;;;;;;20263085;23;20046;-60
2022/12/03 17:55:11;;;;;;;0.10;0.10;;;2.00;99.90;;;;;;20224082;23;20165;-57
2022/12/03 18:05:13;;;;;;;0.10;0.10;;;2.00;99.90;;;;;;20244796;23;20058;-61
2022/12/03 18:15:16;;;;;;;0.85;0.10;;;2.00;99.90;;;;;;20241415;23;20057;-59
2022/12/03 18:25:19;;;;;;;0.10;0.10;;;2.10;99.90;;;;;;20232281;23;20113;-61
2022/12/03 18:35:22;;;;;;;1.02;0.10;;;2.30;99.90;;;;;;20257392;23;20071;-66
2022/12/03 18:45:40;;;;;;;1.50;0.50;;;2.40;99.90;;;;;;20199064;23;20050;-58
2022/12/03 18:55:44;;;;;;;1.13;0.10;;;2.20;99.90;;;;;;20220552;23;20107;-62
2022/12/03 19:05:46;;;;;;;0.93;0.20;;;2.20;99.90;;;;;;20236402;23;20061;-56
2022/12/03 19:15:53;;;;;;;0.22;0.10;;;2.30;99.90;;;;;;20308967;23;20054;-57
2022/12/03 19:25:57;;;;;;;1.38;0.10;;;2.20;99.90;;;;;;20251208;23;20571;-55
2022/12/03 19:47:16;;;;;;;0.10;0.10;;;2.40;99.90;;;;;;20210003;23;20116;-58
2022/12/03 19:57:18;;;;;;;2.08;0.30;;;2.30;99.90;;;;;;20232526;23;20054;-49
2022/12/03 20:07:21;;;;;;;1.20;0.10;;;2.40;99.90;;;;;;20202005;23;20078;-63
2022/12/03 20:17:24;;;;;;;0.75;0.22;;;2.40;99.90;;;;;;20188097;23;20119;-57
2022/12/03 20:27:43;;;;;;;1.75;0.50;;;2.40;99.90;;;;;;20226118;23;20054;-61
2022/12/03 20:37:46;;;;;;;0.80;0.17;;;2.50;99.90;;;;;;20239655;23;20058;-56
2022/12/03 20:47:49;;;;;;;0.88;0.50;;;2.50;99.90;;;;;;20214507;23;20053;-60
2022/12/03 20:57:52;;;;;;;0.50;0.22;;;2.60;99.90;;;;;;20212787;23;20053;-57
2022/12/03 21:07:55;;;;;;;0.32;0.20;;;3.00;99.90;;;;;;20257031;23;20588;-55
2022/12/03 21:17:59;;;;;;;0.98;0.10;;;3.20;99.90;;;;;;20231720;23;20484;-56
2022/12/03 21:28:06;;;;;;;0.03;0.00;;;3.30;99.90;;;;;;20227310;23;20062;-60
2022/12/03 21:38:09;;;;;;;0.30;0.08;;;3.00;99.90;;;;;;20231409;23;20107;-54
2022/12/03 21:48:13;;;;;;;0.10;0.00;;;2.90;99.90;;;;;;20231533;23;20637;-60
2022/12/03 21:58:17;;;;;;;0.20;0.10;;;3.00;99.90;;;;;;20234746;23;20103;-44
2022/12/03 22:08:33;;;;;;;0.77;0.10;;;3.00;99.90;;;;;;20568856;23;20423;-56
2022/12/03 22:18:36;;;;;;;0.28;0.10;;;3.50;99.90;;;;;;20433087;23;20058;-60
2022/12/03 22:28:42;;;;;;;0.38;0.20;;;3.90;99.90;;;;;;20244432;23;20110;-55
2022/12/03 22:38:45;;;;;;;1.27;0.20;;;3.60;99.90;;;;;;20232466;23;20057;-60
2022/12/03 22:48:47;;;;;;;0.63;0.10;;;3.40;99.90;;;;;;20217535;23;20115;-55
2022/12/03 22:58:50;;;;;;;0.55;0.22;;;3.40;99.90;;;;;;20248158;23;20041;-45
2022/12/03 23:19:13;;;;;;;2.20;0.32;;;3.20;99.90;;;;;;20176645;23;20099;-60
2022/12/03 23:29:26;;;;;;;0.95;0.40;;;3.10;99.90;;;;;;20371098;23;20050;-43
2022/12/03 23:39:28;;;;;;;1.42;0.30;;;3.60;99.90;;;;;;20249570;23;20130;-60
2022/12/03 23:49:31;;;;;;;2.78;0.30;;;3.90;99.90;;;;;;20262351;23;20500;-59
2022/12/03 23:59:33;;;;;;;0.52;0.30;;;4.20;99.90;;;;;;20228131;23;20055;-58
